createdAt,value
2022-11-14T00:01:13.072Z,1.90
2022-11-14T00:03:40.279Z,1.80
2022-11-14T00:06:08.207Z,1.80
2022-11-14T00:08:35.821Z,1.70
2022-11-14T00:11:03.115Z,1.70
2022-11-14T00:13:29.920Z,1.70
2022-11-14T00:15:56.817Z,1.70
2022-11-14T00:18:24.136Z,1.60
2022-11-14T00:20:52.973Z,1.60
2022-11-14T00:23:21.092Z,1.60
2022-11-14T00:25:48.477Z,1.60
2022-11-14T00:28:15.778Z,1.60
2022-11-14T00:30:47.005Z,1.60
2022-11-14T00:33:19.880Z,1.50
2022-11-14T00:35:54.989Z,1.50
2022-11-14T00:38:22.278Z,1.50
2022-11-14T00:40:49.185Z,1.50
2022-11-14T00:43:15.912Z,1.50
2022-11-14T00:48:14.178Z,1.40
2022-11-14T00:50:42.484Z,1.40
2022-11-14T00:53:09.286Z,1.40
2022-11-14T00:55:36.049Z,1.40
2022-11-14T00:58:02.761Z,1.30
2022-11-14T01:00:29.606Z,1.30
2022-11-14T01:02:58.114Z,1.30
2022-11-14T01:05:26.482Z,1.30
2022-11-14T01:07:54.207Z,1.20
2022-11-14T01:10:21.241Z,1.20
2022-11-14T01:12:48.418Z,1.20
2022-11-14T01:15:15.154Z,1.20
2022-11-14T01:17:42.194Z,1.20
2022-11-14T01:20:09.126Z,1.10
2022-11-14T01:22:35.841Z,1.10
2022-11-14T01:25:02.570Z,1.00
2022-11-14T01:27:32.206Z,1.00
2022-11-14T01:29:59.153Z,1.00
2022-11-14T01:32:27.018Z,1.00
2022-11-14T01:34:53.856Z,1.00
2022-11-14T01:37:20.897Z,1.00
2022-11-14T01:39:47.597Z,0.90
2022-11-14T01:42:14.314Z,0.90
2022-11-14T01:44:52.893Z,0.90
2022-11-14T01:47:28.776Z,0.90
2022-11-14T01:50:00.797Z,1.00
2022-11-14T01:52:39.332Z,1.00
2022-11-14T01:55:09.771Z,1.00
2022-11-14T01:57:44.145Z,1.00
2022-11-14T02:00:12.726Z,0.90
2022-11-14T02:02:39.496Z,0.90
2022-11-14T02:05:11.432Z,0.90
2022-11-14T02:07:41.294Z,0.90
2022-11-14T02:10:20.149Z,1.00
2022-11-14T02:12:47.153Z,1.00
2022-11-14T02:15:15.057Z,1.00
2022-11-14T02:17:44.130Z,1.00
2022-11-14T02:20:11.446Z,1.00
2022-11-14T02:22:42.366Z,1.00
2022-11-14T02:25:13.188Z,0.90
2022-11-14T02:27:41.464Z,0.90
2022-11-14T02:30:23.140Z,0.90
2022-11-14T02:33:10.089Z,0.90
2022-11-14T02:35:36.549Z,0.90
2022-11-14T02:38:03.325Z,0.90
2022-11-14T02:40:30.136Z,1.00
2022-11-14T02:42:56.842Z,1.00
2022-11-14T02:45:23.743Z,1.00
2022-11-14T02:47:50.511Z,1.00
2022-11-14T02:50:18.198Z,1.00
2022-11-14T02:52:47.654Z,0.90
2022-11-14T02:55:14.401Z,1.00
2022-11-14T02:57:41.093Z,0.90
2022-11-14T03:00:13.505Z,0.90
2022-11-14T03:02:41.771Z,0.90
2022-11-14T03:05:08.981Z,0.80
2022-11-14T03:07:35.811Z,0.80
2022-11-14T03:10:03.224Z,0.80
2022-11-14T03:12:30.002Z,0.80
2022-11-14T03:14:56.700Z,0.80
2022-11-14T03:17:24.617Z,0.80
2022-11-14T03:19:51.524Z,0.80
2022-11-14T03:22:18.310Z,0.80
2022-11-14T03:24:45.020Z,0.80
2022-11-14T03:27:11.728Z,0.90
2022-11-14T03:29:38.448Z,0.80
2022-11-14T03:32:05.282Z,0.90
2022-11-14T03:34:32.306Z,1.00
2022-11-14T03:37:00.322Z,1.00
2022-11-14T03:39:27.834Z,0.90
2022-11-14T03:41:54.558Z,0.90
2022-11-14T03:44:21.252Z,0.90
2022-11-14T03:46:48.001Z,0.90
2022-11-14T03:49:14.685Z,0.90
2022-11-14T03:51:41.382Z,0.80
2022-11-14T03:54:08.123Z,0.80
2022-11-14T03:56:34.865Z,0.80
2022-11-14T03:59:01.681Z,0.80
2022-11-14T04:01:29.258Z,0.80
2022-11-14T04:03:56.441Z,0.80
2022-11-14T04:06:23.494Z,0.70
2022-11-14T04:08:51.769Z,0.70
2022-11-14T04:11:19.267Z,0.70
2022-11-14T04:13:46.078Z,0.70
2022-11-14T04:16:12.792Z,0.70
2022-11-14T04:18:39.619Z,0.70
2022-11-14T04:21:06.409Z,0.70
2022-11-14T04:23:33.200Z,0.70
2022-11-14T04:25:59.943Z,0.60
2022-11-14T04:28:26.853Z,0.60
2022-11-14T04:30:53.832Z,0.60
2022-11-14T04:33:20.597Z,0.70
2022-11-14T04:35:48.005Z,0.60
2022-11-14T04:38:14.765Z,0.60
2022-11-14T04:40:47.761Z,0.60
2022-11-14T04:43:14.457Z,0.60
2022-11-14T04:45:41.177Z,0.60
2022-11-14T04:48:07.863Z,0.60
2022-11-14T04:50:34.568Z,0.70
2022-11-14T04:53:01.261Z,0.60
2022-11-14T04:55:27.977Z,0.60
2022-11-14T04:57:56.341Z,0.60
2022-11-14T05:00:24.484Z,0.60
2022-11-14T05:02:51.373Z,0.60
2022-11-14T05:05:18.076Z,0.50
2022-11-14T05:07:44.801Z,0.50
2022-11-14T05:10:11.499Z,0.50
2022-11-14T05:12:38.263Z,0.50
2022-11-14T05:15:05.445Z,0.50
2022-11-14T05:17:32.196Z,0.50
2022-11-14T05:19:58.934Z,0.50
2022-11-14T05:22:25.643Z,0.40
2022-11-14T05:24:52.406Z,0.40
2022-11-14T05:27:19.098Z,0.40
2022-11-14T05:29:45.797Z,0.40
2022-11-14T05:32:16.295Z,0.40
2022-11-14T05:34:43.303Z,0.40
2022-11-14T05:37:10.075Z,0.40
2022-11-14T05:39:36.785Z,0.40
2022-11-14T05:42:03.662Z,0.40
2022-11-14T05:44:30.590Z,1.20
2022-11-14T05:46:57.325Z,0.40
2022-11-14T05:49:24.246Z,0.30
2022-11-14T05:51:51.026Z,0.30
2022-11-14T05:54:17.721Z,0.30
2022-11-14T05:56:44.443Z,0.30
2022-11-14T05:59:11.156Z,0.30
2022-11-14T06:01:37.919Z,0.30
2022-11-14T06:04:06.286Z,0.30
2022-11-14T06:06:33.012Z,0.30
2022-11-14T06:08:59.763Z,0.30
2022-11-14T06:11:26.468Z,0.30
2022-11-14T06:13:53.181Z,0.30
2022-11-14T06:16:20.111Z,0.30
2022-11-14T06:18:47.603Z,0.30
2022-11-14T06:21:21.071Z,0.20
2022-11-14T06:23:48.191Z,0.30
2022-11-14T06:26:25.140Z,0.30
2022-11-14T06:28:53.710Z,0.30
2022-11-14T06:31:21.285Z,0.30
2022-11-14T06:33:48.825Z,0.30
2022-11-14T06:36:16.683Z,0.40
2022-11-14T06:38:44.623Z,0.50
2022-11-14T06:41:17.965Z,0.40
2022-11-14T06:43:49.112Z,0.40
2022-11-14T06:46:19.913Z,0.40
2022-11-14T06:48:48.108Z,0.50
2022-11-14T06:51:16.814Z,0.40
2022-11-14T06:53:44.326Z,0.40
2022-11-14T06:56:15.053Z,0.40
2022-11-14T06:58:48.878Z,0.50
2022-11-14T07:01:22.701Z,0.50
2022-11-14T07:03:50.373Z,0.50
2022-11-14T07:06:24.753Z,0.60
2022-11-14T07:08:56.351Z,0.60
2022-11-14T07:11:35.494Z,0.70
2022-11-14T07:14:04.272Z,0.70
2022-11-14T07:16:36.753Z,0.80
2022-11-14T07:19:09.652Z,0.90
2022-11-14T07:21:37.152Z,1.10
2022-11-14T07:24:04.378Z,1.80
2022-11-14T07:26:31.064Z,2.80
2022-11-14T07:29:02.044Z,4.00
2022-11-14T07:31:29.685Z,5.00
2022-11-14T07:33:56.455Z,6.30
2022-11-14T07:36:23.817Z,7.60
2022-11-14T07:38:50.696Z,8.80
2022-11-14T07:41:18.121Z,9.80
2022-11-14T07:43:45.566Z,10.70
2022-11-14T07:46:17.934Z,11.50
2022-11-14T07:48:45.264Z,12.20
2022-11-14T07:51:30.792Z,12.80
2022-11-14T07:53:57.517Z,13.30
2022-11-14T07:56:25.803Z,13.80
2022-11-14T07:58:52.583Z,14.20
2022-11-14T08:01:19.370Z,14.70
2022-11-14T08:03:46.491Z,15.10
2022-11-14T08:06:16.433Z,15.40
2022-11-14T08:08:43.379Z,15.60
2022-11-14T08:11:10.630Z,15.80
2022-11-14T08:13:37.591Z,15.90
2022-11-14T08:16:12.317Z,15.80
2022-11-14T08:18:40.406Z,15.30
2022-11-14T08:21:07.351Z,14.30
2022-11-14T08:23:34.499Z,13.00
2022-11-14T08:26:01.458Z,11.80
2022-11-14T08:28:29.001Z,10.80
2022-11-14T08:31:04.215Z,10.10
2022-11-14T08:33:31.766Z,9.50
2022-11-14T08:36:05.156Z,9.20
2022-11-14T08:38:34.203Z,9.00
2022-11-14T08:41:02.213Z,9.00
2022-11-14T08:43:31.323Z,8.90
2022-11-14T08:46:02.542Z,8.80
2022-11-14T08:48:32.031Z,8.80
2022-11-14T08:51:04.917Z,8.90
2022-11-14T08:53:32.314Z,8.90
2022-11-14T08:55:59.462Z,9.00
2022-11-14T08:58:33.499Z,9.00
2022-11-14T09:01:07.217Z,9.00
2022-11-14T09:03:34.818Z,9.00
2022-11-14T09:06:02.426Z,9.10
2022-11-14T09:08:30.658Z,9.30
2022-11-14T09:11:05.102Z,9.40
2022-11-14T09:13:34.585Z,9.40
2022-11-14T09:16:01.470Z,9.50
2022-11-14T09:18:29.437Z,9.60
2022-11-14T09:21:05.204Z,9.70
2022-11-14T09:23:33.383Z,9.80
2022-11-14T09:26:09.134Z,9.90
2022-11-14T09:28:36.900Z,10.00
2022-11-14T09:31:12.856Z,10.20
2022-11-14T09:33:40.136Z,10.30
2022-11-14T09:36:15.615Z,10.50
2022-11-14T09:38:44.263Z,10.60
2022-11-14T09:41:36.442Z,10.70
2022-11-14T09:44:39.573Z,10.80
2022-11-14T09:47:19.361Z,11.00
2022-11-14T09:49:52.106Z,11.20
2022-11-14T09:52:35.226Z,11.30
2022-11-14T09:55:36.474Z,11.40
2022-11-14T09:58:05.019Z,11.50
2022-11-14T10:01:11.553Z,11.60
2022-11-14T10:04:09.189Z,11.60
2022-11-14T10:06:54.812Z,11.60
2022-11-14T10:09:39.355Z,11.60
2022-11-14T10:12:22.131Z,11.60
2022-11-14T10:15:16.308Z,11.70
2022-11-14T10:18:15.421Z,11.70
2022-11-14T10:20:50.323Z,11.80
2022-11-14T10:23:38.240Z,11.90
2022-11-14T10:26:16.419Z,12.00
2022-11-14T10:29:17.086Z,12.20
2022-11-14T10:32:23.419Z,12.40
2022-11-14T10:35:04.362Z,12.60
2022-11-14T10:38:00.904Z,12.70
2022-11-14T10:40:44.663Z,12.90
2022-11-14T10:43:32.285Z,13.00
2022-11-14T10:46:18.757Z,13.00
2022-11-14T10:48:49.866Z,13.20
2022-11-14T10:51:28.224Z,13.30
2022-11-14T10:54:17.873Z,13.40
2022-11-14T10:56:50.781Z,13.40
2022-11-14T10:59:18.776Z,13.40
2022-11-14T11:01:58.062Z,13.50
2022-11-14T11:04:31.813Z,13.70
2022-11-14T11:07:07.020Z,13.80
2022-11-14T11:09:55.780Z,14.00
2022-11-14T11:12:46.171Z,14.30
2022-11-14T11:15:20.238Z,14.50
2022-11-14T11:18:02.943Z,14.60
2022-11-14T11:20:31.920Z,14.70
2022-11-14T11:23:11.698Z,14.80
2022-11-14T11:25:40.070Z,14.80
2022-11-14T11:28:18.500Z,14.90
2022-11-14T11:30:56.941Z,14.80
2022-11-14T11:33:36.624Z,15.00
2022-11-14T11:36:18.785Z,15.30
2022-11-14T11:38:47.253Z,15.50
2022-11-14T11:42:07.221Z,15.40
2022-11-14T11:44:19.778Z,15.30
2022-11-14T11:46:59.046Z,15.40
2022-11-14T11:49:53.925Z,15.70
2022-11-14T11:52:34.679Z,15.90
2022-11-14T11:55:28.526Z,16.10
2022-11-14T11:58:22.489Z,16.20
2022-11-14T12:00:55.397Z,16.40
2022-11-14T12:03:25.353Z,16.50
2022-11-14T12:06:25.175Z,16.70
2022-11-14T12:09:22.460Z,16.80
2022-11-14T12:12:10.108Z,16.90
2022-11-14T12:14:51.806Z,16.90
2022-11-14T12:17:30.176Z,17.00
2022-11-14T12:20:14.701Z,17.00
2022-11-14T12:22:59.856Z,16.70
2022-11-14T12:25:47.406Z,16.60
2022-11-14T12:28:46.378Z,16.50
2022-11-14T12:31:16.934Z,16.60
2022-11-14T12:33:56.045Z,16.30
2022-11-14T12:36:31.497Z,16.40
2022-11-14T12:39:01.560Z,16.50
2022-11-14T12:41:36.090Z,16.50
2022-11-14T12:44:36.899Z,16.70
2022-11-14T12:47:06.647Z,17.00
2022-11-14T12:49:48.850Z,17.10
2022-11-14T12:52:40.383Z,16.90
2022-11-14T12:55:25.318Z,16.90
2022-11-14T12:58:09.681Z,17.00
2022-11-14T13:00:46.257Z,17.20
2022-11-14T13:03:49.165Z,17.20
2022-11-14T13:07:07.652Z,17.00
2022-11-14T13:09:58.386Z,17.00
2022-11-14T13:12:53.306Z,17.00
2022-11-14T13:15:54.726Z,16.80
2022-11-14T13:18:45.669Z,16.70
2022-11-14T13:21:39.747Z,16.60
2022-11-14T13:24:19.137Z,16.70
2022-11-14T13:26:49.981Z,17.10
2022-11-14T13:29:41.367Z,17.50
2022-11-14T13:32:12.069Z,18.00
2022-11-14T13:35:04.349Z,18.50
2022-11-14T13:37:58.762Z,20.50
2022-11-14T13:40:59.132Z,22.70
2022-11-14T13:43:46.978Z,25.10
2022-11-14T13:46:46.986Z,26.90
2022-11-14T13:49:40.182Z,27.70
2022-11-14T13:52:06.875Z,27.90
2022-11-14T13:54:34.369Z,28.30
2022-11-14T13:57:28.104Z,29.00
2022-11-14T14:00:18.388Z,29.40
2022-11-14T14:03:07.232Z,29.70
2022-11-14T14:06:01.142Z,30.00
2022-11-14T14:09:09.512Z,30.20
2022-11-14T14:12:07.882Z,30.70
2022-11-14T14:14:59.752Z,30.60
2022-11-14T14:17:57.358Z,30.00
2022-11-14T14:20:37.602Z,28.60
2022-11-14T14:23:16.543Z,26.30
2022-11-14T14:25:55.245Z,23.60
2022-11-14T14:29:03.675Z,21.20
2022-11-14T14:31:41.763Z,19.30
2022-11-14T14:34:31.273Z,17.80
2022-11-14T14:36:58.686Z,16.80
2022-11-14T14:39:28.561Z,16.10
2022-11-14T14:41:58.533Z,15.50
2022-11-14T14:44:39.817Z,15.10
2022-11-14T14:47:41.383Z,14.70
2022-11-14T14:50:26.411Z,14.30
2022-11-14T14:53:04.022Z,14.00
2022-11-14T14:55:34.329Z,13.80
2022-11-14T14:58:22.873Z,13.60
2022-11-14T15:01:00.053Z,13.50
2022-11-14T15:03:40.819Z,13.30
2022-11-14T15:06:38.149Z,13.20
2022-11-14T15:09:07.609Z,13.10
2022-11-14T15:11:39.316Z,12.90
2022-11-14T15:14:07.108Z,12.80
2022-11-14T15:16:34.127Z,12.80
2022-11-14T15:19:01.662Z,12.60
2022-11-14T15:21:30.610Z,12.60
2022-11-14T15:24:18.373Z,12.50
2022-11-14T15:26:50.802Z,12.50
2022-11-14T15:29:24.779Z,12.40
2022-11-14T15:31:58.683Z,12.40
2022-11-14T15:34:26.870Z,12.30
2022-11-14T15:37:16.060Z,12.20
2022-11-14T15:39:43.783Z,12.10
2022-11-14T15:42:26.353Z,12.00
2022-11-14T15:44:53.949Z,11.90
2022-11-14T15:47:29.364Z,11.80
2022-11-14T15:50:13.585Z,11.70
2022-11-14T15:52:56.678Z,11.60
2022-11-14T15:55:24.597Z,11.50
2022-11-14T15:58:00.989Z,11.40
2022-11-14T16:00:53.244Z,11.30
2022-11-14T16:03:22.892Z,11.20
2022-11-14T16:05:49.611Z,11.20
2022-11-14T16:08:16.355Z,11.10
2022-11-14T16:10:43.069Z,11.00
2022-11-14T16:13:13.280Z,10.90
2022-11-14T16:15:40.042Z,10.80
2022-11-14T16:18:06.831Z,10.80
2022-11-14T16:20:37.808Z,10.70
2022-11-14T16:23:05.829Z,10.70
2022-11-14T16:25:33.233Z,10.60
2022-11-14T16:27:59.960Z,10.50
2022-11-14T16:30:26.734Z,10.40
2022-11-14T16:32:53.481Z,10.30
2022-11-14T16:35:26.737Z,10.20
2022-11-14T16:37:55.688Z,10.00
2022-11-14T16:40:27.401Z,10.00
2022-11-14T16:42:56.369Z,9.90
2022-11-14T16:45:24.392Z,9.90
2022-11-14T16:47:51.195Z,9.80
2022-11-14T16:50:19.417Z,9.80
2022-11-14T16:52:46.143Z,9.80
2022-11-14T16:55:13.537Z,9.80
2022-11-14T16:57:40.728Z,9.70
2022-11-14T17:00:12.724Z,9.70
2022-11-14T17:02:43.286Z,9.60
2022-11-14T17:05:10.182Z,9.60
2022-11-14T17:07:37.013Z,9.60
2022-11-14T17:10:05.497Z,9.50
2022-11-14T17:12:50.999Z,9.40
2022-11-14T17:15:36.825Z,9.40
2022-11-14T17:18:03.798Z,9.30
2022-11-14T17:20:31.108Z,9.30
2022-11-14T17:22:57.941Z,9.30
2022-11-14T17:25:24.858Z,9.20
2022-11-14T17:27:51.788Z,9.20
2022-11-14T17:30:18.708Z,9.10
2022-11-14T17:32:45.484Z,9.10
2022-11-14T17:35:12.221Z,9.10
2022-11-14T17:37:38.958Z,9.10
2022-11-14T17:40:10.120Z,9.00
2022-11-14T17:42:38.232Z,9.00
2022-11-14T17:45:05.392Z,9.00
2022-11-14T17:47:32.214Z,9.00
2022-11-14T17:49:58.971Z,9.00
2022-11-14T17:52:28.243Z,8.90
2022-11-14T17:54:54.951Z,8.90
2022-11-14T17:57:21.666Z,8.90
2022-11-14T17:59:48.427Z,8.90
2022-11-14T18:02:17.442Z,8.90
2022-11-14T18:04:44.270Z,8.80
2022-11-14T18:07:11.785Z,8.80
2022-11-14T18:09:39.110Z,8.80
2022-11-14T18:12:06.136Z,8.70
2022-11-14T18:14:32.842Z,8.70
2022-11-14T18:17:12.486Z,8.70
2022-11-14T18:19:40.223Z,8.70
2022-11-14T18:22:06.981Z,8.70
2022-11-14T18:24:33.679Z,8.70
2022-11-14T18:27:00.408Z,8.60
2022-11-14T18:29:28.300Z,8.60
2022-11-14T18:31:55.206Z,8.60
2022-11-14T18:34:21.941Z,8.50
2022-11-14T18:36:48.707Z,8.50
2022-11-14T18:39:15.422Z,8.30
2022-11-14T18:41:42.122Z,8.30
2022-11-14T18:44:08.858Z,8.20
2022-11-14T18:46:37.630Z,8.20
2022-11-14T18:49:04.479Z,8.10
2022-11-14T18:51:31.787Z,8.10
2022-11-14T18:54:01.650Z,8.00
2022-11-14T18:56:28.363Z,8.00
2022-11-14T18:58:57.060Z,8.00
2022-11-14T19:01:29.088Z,8.00
2022-11-14T19:04:06.513Z,7.90
2022-11-14T19:06:36.457Z,7.90
2022-11-14T19:09:18.063Z,7.90
2022-11-14T19:12:03.749Z,7.80
2022-11-14T19:14:30.499Z,7.70
2022-11-14T19:16:57.256Z,7.60
2022-11-14T19:19:23.984Z,7.70
2022-11-14T19:21:51.266Z,7.70
2022-11-14T19:24:18.678Z,7.80
2022-11-14T19:26:45.460Z,7.80
2022-11-14T19:29:15.054Z,7.80
2022-11-14T19:31:43.137Z,7.80
2022-11-14T19:34:10.198Z,7.80
2022-11-14T19:39:24.105Z,7.70
2022-11-14T19:41:50.892Z,7.60
2022-11-14T19:44:17.614Z,7.50
2022-11-14T19:46:47.487Z,7.40
2022-11-14T19:49:15.256Z,7.30
2022-11-14T19:51:42.254Z,7.20
2022-11-14T19:54:11.102Z,7.10
2022-11-14T19:56:37.894Z,7.00
2022-11-14T19:59:09.690Z,7.00
2022-11-14T20:01:42.022Z,6.90
2022-11-14T20:04:13.029Z,6.80
2022-11-14T20:06:41.445Z,6.80
2022-11-14T20:09:10.784Z,6.70
2022-11-14T20:11:38.020Z,6.70
2022-11-14T20:14:05.745Z,6.60
2022-11-14T20:16:37.307Z,6.50
2022-11-14T20:19:04.533Z,6.50
2022-11-14T20:21:33.988Z,6.40
2022-11-14T20:24:01.216Z,6.40
2022-11-14T20:26:28.072Z,6.30
2022-11-14T20:33:58.566Z,6.20
2022-11-14T20:36:31.903Z,6.20
2022-11-14T20:39:06.053Z,6.20
2022-11-14T20:41:33.480Z,6.10
2022-11-14T20:44:02.126Z,6.10
2022-11-14T20:46:29.025Z,6.10
2022-11-14T20:48:56.881Z,6.00
2022-11-14T20:51:25.802Z,5.90
2022-11-14T20:53:55.459Z,5.90
2022-11-14T20:56:23.114Z,5.80
2022-11-14T20:58:53.865Z,5.80
2022-11-14T21:01:21.460Z,5.80
2022-11-14T21:03:48.887Z,5.80
2022-11-14T21:06:16.858Z,5.70
2022-11-14T21:08:44.316Z,5.70
2022-11-14T21:11:18.080Z,5.70
2022-11-14T21:13:57.636Z,5.70
2022-11-14T21:16:32.250Z,5.70
2022-11-14T21:19:00.635Z,5.70
2022-11-14T21:21:30.300Z,5.60
2022-11-14T21:23:57.436Z,5.60
2022-11-14T21:26:27.984Z,5.60
2022-11-14T21:29:03.496Z,5.60
2022-11-14T21:31:39.709Z,5.60
2022-11-14T21:34:16.604Z,5.50
2022-11-14T21:36:45.539Z,5.60
2022-11-14T21:39:14.688Z,5.60
2022-11-14T21:41:42.785Z,5.60
2022-11-14T21:44:13.632Z,5.60
2022-11-14T21:46:40.804Z,5.60
2022-11-14T21:49:08.030Z,5.60
2022-11-14T21:51:35.068Z,5.60
2022-11-14T21:54:06.220Z,5.80
2022-11-14T21:56:35.299Z,5.70
2022-11-14T21:59:13.891Z,5.80
2022-11-14T22:02:03.249Z,5.90
2022-11-14T22:04:31.245Z,6.00
2022-11-14T22:06:59.253Z,6.10
2022-11-14T22:09:30.044Z,6.10
2022-11-14T22:11:57.039Z,6.10
2022-11-14T22:14:24.419Z,6.10
2022-11-14T22:16:51.364Z,6.10
2022-11-14T22:19:18.784Z,6.00
2022-11-14T22:21:45.679Z,6.00
2022-11-14T22:24:12.399Z,6.00
2022-11-14T22:26:40.294Z,6.10
2022-11-14T22:29:08.000Z,6.00
2022-11-14T22:31:35.478Z,6.00
2022-11-14T22:34:02.209Z,5.90
2022-11-14T22:36:29.164Z,5.90
2022-11-14T22:38:57.281Z,5.90
2022-11-14T22:41:32.807Z,5.70
2022-11-14T22:44:01.437Z,5.70
2022-11-14T22:46:28.784Z,5.60
2022-11-14T22:48:56.097Z,5.60
2022-11-14T22:51:26.166Z,5.50
2022-11-14T22:53:57.951Z,5.50
2022-11-14T22:56:29.538Z,5.50
2022-11-14T22:58:58.985Z,5.50
2022-11-14T23:01:32.075Z,5.50
2022-11-14T23:04:04.962Z,5.40
2022-11-14T23:06:34.304Z,5.40
2022-11-14T23:09:02.182Z,5.40
2022-11-14T23:11:32.895Z,5.40
2022-11-14T23:14:01.258Z,5.40
2022-11-14T23:16:33.252Z,5.40
2022-11-14T23:19:03.818Z,5.40
2022-11-14T23:21:35.485Z,5.30
2022-11-14T23:24:06.171Z,5.30
2022-11-14T23:26:33.500Z,5.30
2022-11-14T23:29:01.017Z,5.20
2022-11-14T23:31:27.938Z,5.20
2022-11-14T23:33:57.656Z,5.20
2022-11-14T23:36:25.051Z,5.20
2022-11-14T23:38:53.346Z,5.10
2022-11-14T23:41:27.715Z,5.10
2022-11-14T23:43:54.546Z,5.10
2022-11-14T23:46:21.374Z,5.10
2022-11-14T23:48:48.669Z,5.10
2022-11-14T23:51:15.462Z,5.10
2022-11-14T23:53:46.739Z,5.10
2022-11-14T23:56:14.725Z,5.00
2022-11-14T23:58:42.039Z,5.10
